Pagina principală
METAR-TAF:

METAR-TAF

Aeroporturi :

Liberal, Kansas, Statele Unite ale Americii

Latitudine: 37-03N, longitudine: 100-58W, elevație: 879 m

Observații meteo curente

Raportul a fost făcut în urmă cu 10 de minute, la 00:56 UTC
Vânt 9 kt de la Est
Temperatură 24°C
Umiditate 36%
Presiune 1008 hPa
Vizibilitate: 16.1 km
Cer senin

METAR: KLBL 220056Z AUTO 08009KT 10SM CLR 24/08 A2978 RMK AO2 SLP057 T02440078 PNO $

Ora: 20:06 (01:06 UTC)


TAF: lipsă

Observații și prognoze meteo pentru peste 4.000 de aeroporturi (rapoarte METAR și TAF).

Stațiile disponibile sunt reprezentate pe hartă prin puncte galbene și roșii.

Țineți indicatorul mouse-ului pe punctul dorit pentru a vedea denumirea stației.

Apoi, faceți clic pentru a vedea observațiile și prognozele meteorologice.

Pentru a schimba harta: Pentru mărire, faceți clic pe butoanele verzi cu cruce neagră; pentru micșorare, pe butonul verde cu o liniuță; pentru hărți învecinate, pe săgețile verzi.


METAR-TAF: